Αρχική σελίδα
METAR-TAF:

METAR-TAF

Αεροδρόμια :

Fremont Municipal Airport

Fremont, Νεμπράσκα, Ηνωμένες Πολιτείες Αμερικής

γεωγραφικό πλάτος: 41-27N, γεωγραφικό μήκος: 096-31W, υψόμετρο: 379 μ

Παρών καιρός

Η αναφορά έγινε 16 λεπτά πριν, στις 10:15 UTC
Άνεμος 4 kt από Α
Θερμοκρασία 20°C
Υγρασία 94%
Πίεση 1011 hPa
Ορατότητα: 8.0 χλμ
Νεφοσκεπής σε ύψος 200 πόδια
Αχλής

METAR: KFET 191015Z AUTO 10004KT 5SM BR OVC002 20/19 A2986 RMK AO2 LTG DSNT N T01960188

Χρόνος: 05:31 (10:31 UTC)


TAF: λείπει

Μετεωρολογικές αναφορές και προγνώσεις για περισσότερα από 4000 αεροδρόμια (δελτία METAR και TAF).

Οι διαθέσιμοι σταθμοί απεικονίζονται στο χάρτη με κίτρινες και κόκκινες κουκκίδες.

Μετακινήστε το ποντίκι πάνω από τις κουκκίδες για να δείτε το όνομα του σταθμού.

Στη συνέχεια, κάντε κλικ για να δείτε τις μετεωρολογικές αναφορές και τις προγνώσεις καιρού.

Για να αλλάξετε το χάρτη: κάντε κλικ στα πράσινα κουμπιά με τον μαύρο σταυρό για να ζουμάρετε, στο πράσινο κουμπί με την παύλα για να αφαιρέσετε το ζουμ ή στα πράσινα βέλη για να αντιπαραβάλλετε χάρτες.


METAR-TAF: